sensor_id;sensor_type;location;lat;lon;timestamp;P1;durP1;ratioP1;P2;durP2;ratioP2
12597;SDS011;6364;53.590;9.956;2022-12-11T00:02:21;19.85;;;9.50;;
12597;SDS011;6364;53.590;9.956;2022-12-11T00:04:47;18.55;;;9.07;;
12597;SDS011;6364;53.590;9.956;2022-12-11T00:07:12;17.67;;;9.32;;
12597;SDS011;6364;53.590;9.956;2022-12-11T00:09:38;17.67;;;9.57;;
12597;SDS011;6364;53.590;9.956;2022-12-11T00:12:03;18.58;;;9.82;;
12597;SDS011;6364;53.590;9.956;2022-12-11T00:14:29;17.23;;;9.77;;
12597;SDS011;6364;53.590;9.956;2022-12-11T00:16:55;19.10;;;10.80;;
12597;SDS011;6364;53.590;9.956;2022-12-11T00:19:20;19.77;;;10.07;;
12597;SDS011;6364;53.590;9.956;2022-12-11T00:21:45;17.27;;;9.70;;
12597;SDS011;6364;53.590;9.956;2022-12-11T00:24:10;20.17;;;9.75;;
12597;SDS011;6364;53.590;9.956;2022-12-11T00:26:36;17.33;;;9.82;;
12597;SDS011;6364;53.590;9.956;2022-12-11T00:29:01;22.50;;;10.32;;
12597;SDS011;6364;53.590;9.956;2022-12-11T00:31:27;16.80;;;9.52;;
12597;SDS011;6364;53.590;9.956;2022-12-11T00:33:52;17.05;;;9.75;;
12597;SDS011;6364;53.590;9.956;2022-12-11T00:36:22;16.88;;;9.38;;
12597;SDS011;6364;53.590;9.956;2022-12-11T00:38:49;18.88;;;10.13;;
12597;SDS011;6364;53.590;9.956;2022-12-11T00:41:14;17.85;;;9.30;;
12597;SDS011;6364;53.590;9.956;2022-12-11T00:43:40;19.92;;;9.88;;
12597;SDS011;6364;53.590;9.956;2022-12-11T00:46:06;17.02;;;9.35;;
12597;SDS011;6364;53.590;9.956;2022-12-11T00:48:31;21.25;;;10.05;;
12597;SDS011;6364;53.590;9.956;2022-12-11T00:50:56;19.35;;;9.98;;
12597;SDS011;6364;53.590;9.956;2022-12-11T00:53:22;20.42;;;10.35;;
12597;SDS011;6364;53.590;9.956;2022-12-11T00:55:47;18.52;;;10.00;;
12597;SDS011;6364;53.590;9.956;2022-12-11T00:58:13;21.58;;;10.43;;
12597;SDS011;6364;53.590;9.956;2022-12-11T01:00:39;19.13;;;10.23;;
12597;SDS011;6364;53.590;9.956;2022-12-11T01:03:05;20.73;;;10.05;;
12597;SDS011;6364;53.590;9.956;2022-12-11T01:05:31;19.27;;;10.40;;
12597;SDS011;6364;53.590;9.956;2022-12-11T01:07:57;20.23;;;10.20;;
12597;SDS011;6364;53.590;9.956;2022-12-11T01:10:22;20.50;;;10.82;;
12597;SDS011;6364;53.590;9.956;2022-12-11T01:12:51;19.95;;;10.18;;
12597;SDS011;6364;53.590;9.956;2022-12-11T01:15:18;21.10;;;10.77;;
12597;SDS011;6364;53.590;9.956;2022-12-11T01:17:44;20.25;;;10.00;;
12597;SDS011;6364;53.590;9.956;2022-12-11T01:20:10;18.35;;;9.70;;
12597;SDS011;6364;53.590;9.956;2022-12-11T01:22:35;17.38;;;9.73;;
12597;SDS011;6364;53.590;9.956;2022-12-11T01:25:01;19.20;;;10.23;;
12597;SDS011;6364;53.590;9.956;2022-12-11T01:27:26;19.83;;;10.73;;
12597;SDS011;6364;53.590;9.956;2022-12-11T01:29:52;19.23;;;10.85;;
12597;SDS011;6364;53.590;9.956;2022-12-11T01:32:17;21.88;;;10.95;;
12597;SDS011;6364;53.590;9.956;2022-12-11T01:34:42;21.83;;;10.55;;
12597;SDS011;6364;53.590;9.956;2022-12-11T01:37:08;18.70;;;10.68;;
12597;SDS011;6364;53.590;9.956;2022-12-11T01:39:33;18.20;;;9.80;;
12597;SDS011;6364;53.590;9.956;2022-12-11T01:42:00;21.25;;;10.98;;
12597;SDS011;6364;53.590;9.956;2022-12-11T01:46:51;20.48;;;11.48;;
12597;SDS011;6364;53.590;9.956;2022-12-11T01:49:17;22.38;;;12.02;;
12597;SDS011;6364;53.590;9.956;2022-12-11T01:51:46;24.83;;;12.73;;
12597;SDS011;6364;53.590;9.956;2022-12-11T01:54:14;23.70;;;12.23;;
12597;SDS011;6364;53.590;9.956;2022-12-11T01:56:42;21.48;;;11.48;;
12597;SDS011;6364;53.590;9.956;2022-12-11T01:59:08;22.55;;;11.30;;
12597;SDS011;6364;53.590;9.956;2022-12-11T02:01:34;21.75;;;11.98;;
12597;SDS011;6364;53.590;9.956;2022-12-11T02:04:00;22.75;;;11.43;;
12597;SDS011;6364;53.590;9.956;2022-12-11T02:06:34;23.75;;;11.45;;
12597;SDS011;6364;53.590;9.956;2022-12-11T02:08:59;21.70;;;11.68;;
12597;SDS011;6364;53.590;9.956;2022-12-11T02:11:28;20.98;;;10.63;;
12597;SDS011;6364;53.590;9.956;2022-12-11T02:14:25;24.42;;;11.80;;
12597;SDS011;6364;53.590;9.956;2022-12-11T02:16:58;25.20;;;11.57;;
12597;SDS011;6364;53.590;9.956;2022-12-11T02:19:36;22.38;;;11.75;;
12597;SDS011;6364;53.590;9.956;2022-12-11T02:22:15;21.25;;;11.32;;
12597;SDS011;6364;53.590;9.956;2022-12-11T02:25:15;24.70;;;12.40;;
12597;SDS011;6364;53.590;9.956;2022-12-11T02:27:41;19.95;;;11.00;;
12597;SDS011;6364;53.590;9.956;2022-12-11T02:30:10;23.23;;;11.88;;
12597;SDS011;6364;53.590;9.956;2022-12-11T02:37:58;18.83;;;11.13;;
12597;SDS011;6364;53.590;9.956;2022-12-11T02:40:28;22.90;;;12.00;;
12597;SDS011;6364;53.590;9.956;2022-12-11T02:42:55;24.52;;;12.43;;
12597;SDS011;6364;53.590;9.956;2022-12-11T02:45:22;23.42;;;12.50;;
12597;SDS011;6364;53.590;9.956;2022-12-11T02:47:48;22.85;;;12.43;;
12597;SDS011;6364;53.590;9.956;2022-12-11T02:50:17;25.83;;;12.57;;
12597;SDS011;6364;53.590;9.956;2022-12-11T02:52:44;23.90;;;12.13;;
12597;SDS011;6364;53.590;9.956;2022-12-11T02:55:10;27.23;;;13.18;;
12597;SDS011;6364;53.590;9.956;2022-12-11T03:00:04;30.00;;;14.00;;
12597;SDS011;6364;53.590;9.956;2022-12-11T03:02:30;26.27;;;13.10;;
12597;SDS011;6364;53.590;9.956;2022-12-11T03:04:55;26.38;;;14.07;;
12597;SDS011;6364;53.590;9.956;2022-12-11T03:07:22;26.40;;;13.65;;
12597;SDS011;6364;53.590;9.956;2022-12-11T03:09:50;29.77;;;13.48;;
12597;SDS011;6364;53.590;9.956;2022-12-11T03:12:16;29.98;;;12.98;;
12597;SDS011;6364;53.590;9.956;2022-12-11T03:14:44;23.70;;;12.40;;
12597;SDS011;6364;53.590;9.956;2022-12-11T03:17:20;25.48;;;12.60;;
12597;SDS011;6364;53.590;9.956;2022-12-11T03:20:06;26.33;;;13.02;;
12597;SDS011;6364;53.590;9.956;2022-12-11T03:25:33;27.70;;;13.52;;
12597;SDS011;6364;53.590;9.956;2022-12-11T03:30:35;26.77;;;13.52;;
12597;SDS011;6364;53.590;9.956;2022-12-11T03:33:05;28.45;;;13.52;;
12597;SDS011;6364;53.590;9.956;2022-12-11T03:35:41;21.65;;;12.18;;
12597;SDS011;6364;53.590;9.956;2022-12-11T03:38:25;23.45;;;12.52;;
12597;SDS011;6364;53.590;9.956;2022-12-11T03:40:53;25.55;;;13.15;;
12597;SDS011;6364;53.590;9.956;2022-12-11T03:43:20;24.65;;;12.30;;
12597;SDS011;6364;53.590;9.956;2022-12-11T03:45:46;26.42;;;13.13;;
12597;SDS011;6364;53.590;9.956;2022-12-11T03:48:13;25.40;;;12.93;;
12597;SDS011;6364;53.590;9.956;2022-12-11T03:50:39;25.52;;;12.50;;
12597;SDS011;6364;53.590;9.956;2022-12-11T03:53:06;23.75;;;12.40;;
12597;SDS011;6364;53.590;9.956;2022-12-11T03:55:32;23.30;;;12.18;;
12597;SDS011;6364;53.590;9.956;2022-12-11T03:57:58;22.33;;;12.07;;
12597;SDS011;6364;53.590;9.956;2022-12-11T04:00:23;24.30;;;12.65;;
12597;SDS011;6364;53.590;9.956;2022-12-11T04:02:49;26.80;;;12.57;;
12597;SDS011;6364;53.590;9.956;2022-12-11T04:05:34;24.00;;;11.45;;
12597;SDS011;6364;53.590;9.956;2022-12-11T04:08:00;24.85;;;11.90;;
12597;SDS011;6364;53.590;9.956;2022-12-11T04:10:25;21.05;;;11.63;;
12597;SDS011;6364;53.590;9.956;2022-12-11T04:12:51;22.55;;;12.18;;
12597;SDS011;6364;53.590;9.956;2022-12-11T04:15:16;24.38;;;12.38;;
12597;SDS011;6364;53.590;9.956;2022-12-11T04:17:41;24.92;;;12.18;;
12597;SDS011;6364;53.590;9.956;2022-12-11T04:23:13;25.88;;;12.27;;
12597;SDS011;6364;53.590;9.956;2022-12-11T04:26:13;22.73;;;12.15;;
12597;SDS011;6364;53.590;9.956;2022-12-11T04:28:40;24.38;;;12.90;;
12597;SDS011;6364;53.590;9.956;2022-12-11T04:31:09;21.50;;;11.95;;
12597;SDS011;6364;53.590;9.956;2022-12-11T04:33:38;26.42;;;12.55;;
12597;SDS011;6364;53.590;9.956;2022-12-11T04:36:04;24.92;;;13.57;;
12597;SDS011;6364;53.590;9.956;2022-12-11T04:38:30;23.42;;;12.52;;
12597;SDS011;6364;53.590;9.956;2022-12-11T04:40:58;27.27;;;13.82;;
12597;SDS011;6364;53.590;9.956;2022-12-11T04:43:24;29.42;;;13.05;;
12597;SDS011;6364;53.590;9.956;2022-12-11T04:45:50;26.88;;;13.65;;
12597;SDS011;6364;53.590;9.956;2022-12-11T04:48:15;24.75;;;13.45;;
12597;SDS011;6364;53.590;9.956;2022-12-11T04:50:40;26.25;;;14.18;;
12597;SDS011;6364;53.590;9.956;2022-12-11T04:53:05;28.23;;;14.13;;
12597;SDS011;6364;53.590;9.956;2022-12-11T04:55:31;25.30;;;13.18;;
12597;SDS011;6364;53.590;9.956;2022-12-11T04:57:56;28.10;;;14.00;;
12597;SDS011;6364;53.590;9.956;2022-12-11T05:00:21;25.77;;;13.55;;
12597;SDS011;6364;53.590;9.956;2022-12-11T05:02:47;27.60;;;14.25;;
12597;SDS011;6364;53.590;9.956;2022-12-11T05:05:12;28.27;;;13.60;;
12597;SDS011;6364;53.590;9.956;2022-12-11T05:07:38;28.90;;;13.98;;
12597;SDS011;6364;53.590;9.956;2022-12-11T05:10:04;25.75;;;13.55;;
12597;SDS011;6364;53.590;9.956;2022-12-11T05:12:30;28.38;;;14.60;;
12597;SDS011;6364;53.590;9.956;2022-12-11T05:14:56;25.27;;;13.65;;
12597;SDS011;6364;53.590;9.956;2022-12-11T05:17:21;27.33;;;14.02;;
12597;SDS011;6364;53.590;9.956;2022-12-11T05:19:49;26.45;;;13.70;;
12597;SDS011;6364;53.590;9.956;2022-12-11T05:22:15;25.15;;;13.95;;
12597;SDS011;6364;53.590;9.956;2022-12-11T05:24:41;26.52;;;14.10;;
12597;SDS011;6364;53.590;9.956;2022-12-11T05:27:07;29.23;;;13.43;;
12597;SDS011;6364;53.590;9.956;2022-12-11T05:29:32;26.00;;;13.25;;
12597;SDS011;6364;53.590;9.956;2022-12-11T05:31:57;29.05;;;13.48;;
12597;SDS011;6364;53.590;9.956;2022-12-11T05:34:23;25.75;;;12.63;;
12597;SDS011;6364;53.590;9.956;2022-12-11T05:36:48;26.67;;;13.20;;
12597;SDS011;6364;53.590;9.956;2022-12-11T05:39:13;27.60;;;13.15;;
12597;SDS011;6364;53.590;9.956;2022-12-11T05:41:39;30.83;;;14.23;;
12597;SDS011;6364;53.590;9.956;2022-12-11T05:44:04;28.30;;;13.15;;
12597;SDS011;6364;53.590;9.956;2022-12-11T05:46:29;27.98;;;14.50;;
12597;SDS011;6364;53.590;9.956;2022-12-11T05:48:59;28.80;;;13.32;;
12597;SDS011;6364;53.590;9.956;2022-12-11T05:51:25;27.75;;;14.05;;
12597;SDS011;6364;53.590;9.956;2022-12-11T05:53:51;26.45;;;13.10;;
12597;SDS011;6364;53.590;9.956;2022-12-11T05:56:18;25.90;;;13.07;;
12597;SDS011;6364;53.590;9.956;2022-12-11T05:58:54;26.20;;;13.48;;
12597;SDS011;6364;53.590;9.956;2022-12-11T06:01:30;25.48;;;13.20;;
12597;SDS011;6364;53.590;9.956;2022-12-11T06:03:57;25.40;;;13.02;;
12597;SDS011;6364;53.590;9.956;2022-12-11T06:06:23;26.83;;;12.45;;
12597;SDS011;6364;53.590;9.956;2022-12-11T06:08:50;26.33;;;13.95;;
12597;SDS011;6364;53.590;9.956;2022-12-11T06:11:16;25.77;;;13.70;;
12597;SDS011;6364;53.590;9.956;2022-12-11T06:13:42;27.25;;;14.25;;
12597;SDS011;6364;53.590;9.956;2022-12-11T06:16:07;29.70;;;14.88;;
12597;SDS011;6364;53.590;9.956;2022-12-11T06:18:35;26.10;;;13.18;;
12597;SDS011;6364;53.590;9.956;2022-12-11T06:21:01;24.73;;;13.05;;
12597;SDS011;6364;53.590;9.956;2022-12-11T06:23:26;29.92;;;14.40;;
12597;SDS011;6364;53.590;9.956;2022-12-11T06:25:52;27.00;;;14.35;;
12597;SDS011;6364;53.590;9.956;2022-12-11T06:28:17;29.25;;;14.32;;
12597;SDS011;6364;53.590;9.956;2022-12-11T06:30:42;25.30;;;12.88;;
12597;SDS011;6364;53.590;9.956;2022-12-11T06:33:08;31.27;;;13.52;;
12597;SDS011;6364;53.590;9.956;2022-12-11T06:35:34;28.75;;;14.07;;
12597;SDS011;6364;53.590;9.956;2022-12-11T06:37:59;27.45;;;14.40;;
12597;SDS011;6364;53.590;9.956;2022-12-11T06:40:25;28.65;;;14.57;;
12597;SDS011;6364;53.590;9.956;2022-12-11T06:42:50;30.10;;;14.27;;
12597;SDS011;6364;53.590;9.956;2022-12-11T06:45:15;25.38;;;13.40;;
12597;SDS011;6364;53.590;9.956;2022-12-11T06:47:41;25.90;;;13.57;;
12597;SDS011;6364;53.590;9.956;2022-12-11T06:50:06;26.02;;;13.10;;
12597;SDS011;6364;53.590;9.956;2022-12-11T06:52:31;29.60;;;14.43;;
12597;SDS011;6364;53.590;9.956;2022-12-11T06:54:57;25.08;;;12.75;;
12597;SDS011;6364;53.590;9.956;2022-12-11T06:57:22;30.33;;;14.45;;
12597;SDS011;6364;53.590;9.956;2022-12-11T06:59:48;26.25;;;12.73;;
12597;SDS011;6364;53.590;9.956;2022-12-11T07:02:13;27.25;;;13.00;;
12597;SDS011;6364;53.590;9.956;2022-12-11T07:04:40;29.17;;;14.40;;
12597;SDS011;6364;53.590;9.956;2022-12-11T07:07:06;29.55;;;14.15;;
12597;SDS011;6364;53.590;9.956;2022-12-11T07:09:32;26.38;;;13.80;;
12597;SDS011;6364;53.590;9.956;2022-12-11T07:11:57;29.63;;;13.75;;
12597;SDS011;6364;53.590;9.956;2022-12-11T07:14:22;29.50;;;14.30;;
12597;SDS011;6364;53.590;9.956;2022-12-11T07:16:48;26.23;;;13.43;;
12597;SDS011;6364;53.590;9.956;2022-12-11T07:19:13;28.00;;;14.65;;
12597;SDS011;6364;53.590;9.956;2022-12-11T07:21:39;31.05;;;14.13;;
12597;SDS011;6364;53.590;9.956;2022-12-11T07:24:04;26.98;;;14.27;;
12597;SDS011;6364;53.590;9.956;2022-12-11T07:26:30;29.98;;;14.00;;
12597;SDS011;6364;53.590;9.956;2022-12-11T07:28:56;29.80;;;14.70;;
12597;SDS011;6364;53.590;9.956;2022-12-11T07:31:23;28.35;;;14.45;;
12597;SDS011;6364;53.590;9.956;2022-12-11T07:33:54;32.55;;;14.95;;
12597;SDS011;6364;53.590;9.956;2022-12-11T07:36:22;31.50;;;13.75;;
12597;SDS011;6364;53.590;9.956;2022-12-11T07:38:48;31.30;;;15.07;;
12597;SDS011;6364;53.590;9.956;2022-12-11T07:41:13;31.52;;;14.75;;
12597;SDS011;6364;53.590;9.956;2022-12-11T07:43:40;30.75;;;14.82;;
12597;SDS011;6364;53.590;9.956;2022-12-11T07:46:07;30.98;;;14.55;;
12597;SDS011;6364;53.590;9.956;2022-12-11T07:48:34;27.92;;;13.98;;
12597;SDS011;6364;53.590;9.956;2022-12-11T07:51:16;29.90;;;14.93;;
12597;SDS011;6364;53.590;9.956;2022-12-11T07:53:46;33.70;;;15.15;;
12597;SDS011;6364;53.590;9.956;2022-12-11T07:56:13;34.92;;;14.63;;
12597;SDS011;6364;53.590;9.956;2022-12-11T07:58:39;31.98;;;14.80;;
12597;SDS011;6364;53.590;9.956;2022-12-11T08:01:05;29.95;;;13.68;;
12597;SDS011;6364;53.590;9.956;2022-12-11T08:03:35;34.53;;;15.35;;
12597;SDS011;6364;53.590;9.956;2022-12-11T08:06:01;30.50;;;14.43;;
12597;SDS011;6364;53.590;9.956;2022-12-11T08:08:26;29.90;;;14.20;;
12597;SDS011;6364;53.590;9.956;2022-12-11T08:10:51;31.08;;;13.75;;
12597;SDS011;6364;53.590;9.956;2022-12-11T08:13:17;30.60;;;14.48;;
12597;SDS011;6364;53.590;9.956;2022-12-11T08:15:42;32.08;;;14.73;;
12597;SDS011;6364;53.590;9.956;2022-12-11T08:18:10;29.38;;;14.35;;
12597;SDS011;6364;53.590;9.956;2022-12-11T08:20:38;34.10;;;14.68;;
12597;SDS011;6364;53.590;9.956;2022-12-11T08:23:04;34.83;;;15.07;;
12597;SDS011;6364;53.590;9.956;2022-12-11T08:25:29;31.38;;;14.07;;
12597;SDS011;6364;53.590;9.956;2022-12-11T08:27:54;31.15;;;13.57;;
12597;SDS011;6364;53.590;9.956;2022-12-11T08:30:20;31.15;;;14.00;;
12597;SDS011;6364;53.590;9.956;2022-12-11T08:32:45;30.98;;;14.65;;
12597;SDS011;6364;53.590;9.956;2022-12-11T08:35:11;33.63;;;15.02;;
12597;SDS011;6364;53.590;9.956;2022-12-11T08:37:36;29.70;;;14.45;;
12597;SDS011;6364;53.590;9.956;2022-12-11T08:40:01;30.60;;;13.38;;
12597;SDS011;6364;53.590;9.956;2022-12-11T08:42:27;31.13;;;13.65;;
12597;SDS011;6364;53.590;9.956;2022-12-11T08:44:52;30.00;;;13.93;;
12597;SDS011;6364;53.590;9.956;2022-12-11T08:47:17;30.45;;;14.02;;
12597;SDS011;6364;53.590;9.956;2022-12-11T08:49:43;31.65;;;13.85;;
12597;SDS011;6364;53.590;9.956;2022-12-11T08:52:08;29.08;;;14.35;;
12597;SDS011;6364;53.590;9.956;2022-12-11T08:54:35;26.55;;;13.32;;
12597;SDS011;6364;53.590;9.956;2022-12-11T08:57:01;32.28;;;14.63;;
12597;SDS011;6364;53.590;9.956;2022-12-11T08:59:26;31.92;;;14.90;;
12597;SDS011;6364;53.590;9.956;2022-12-11T09:01:53;33.80;;;14.63;;
12597;SDS011;6364;53.590;9.956;2022-12-11T09:04:19;31.45;;;15.02;;
12597;SDS011;6364;53.590;9.956;2022-12-11T09:06:45;30.58;;;14.23;;
12597;SDS011;6364;53.590;9.956;2022-12-11T09:09:10;29.50;;;14.15;;
12597;SDS011;6364;53.590;9.956;2022-12-11T09:11:36;31.45;;;14.50;;
12597;SDS011;6364;53.590;9.956;2022-12-11T09:14:02;32.42;;;14.43;;
12597;SDS011;6364;53.590;9.956;2022-12-11T09:16:28;30.45;;;13.90;;
12597;SDS011;6364;53.590;9.956;2022-12-11T09:18:54;30.15;;;14.60;;
12597;SDS011;6364;53.590;9.956;2022-12-11T09:21:22;30.73;;;14.30;;
12597;SDS011;6364;53.590;9.956;2022-12-11T09:23:48;28.17;;;14.02;;
12597;SDS011;6364;53.590;9.956;2022-12-11T09:26:16;28.90;;;14.32;;
12597;SDS011;6364;53.590;9.956;2022-12-11T09:28:42;30.50;;;14.75;;
12597;SDS011;6364;53.590;9.956;2022-12-11T09:31:09;29.67;;;13.90;;
12597;SDS011;6364;53.590;9.956;2022-12-11T09:33:35;26.95;;;13.13;;
12597;SDS011;6364;53.590;9.956;2022-12-11T09:36:01;26.50;;;13.60;;
12597;SDS011;6364;53.590;9.956;2022-12-11T09:38:27;28.17;;;13.27;;
12597;SDS011;6364;53.590;9.956;2022-12-11T09:40:53;28.33;;;13.50;;
12597;SDS011;6364;53.590;9.956;2022-12-11T09:46:04;25.52;;;12.10;;
12597;SDS011;6364;53.590;9.956;2022-12-11T09:48:33;24.33;;;11.98;;
12597;SDS011;6364;53.590;9.956;2022-12-11T09:50:59;28.73;;;13.48;;
12597;SDS011;6364;53.590;9.956;2022-12-11T09:53:31;26.08;;;12.98;;
12597;SDS011;6364;53.590;9.956;2022-12-11T09:55:59;24.63;;;11.98;;
12597;SDS011;6364;53.590;9.956;2022-12-11T09:58:30;22.15;;;11.73;;
12597;SDS011;6364;53.590;9.956;2022-12-11T10:04:02;26.27;;;12.82;;
12597;SDS011;6364;53.590;9.956;2022-12-11T10:06:40;27.08;;;12.25;;
12597;SDS011;6364;53.590;9.956;2022-12-11T10:17:10;21.05;;;11.52;;
12597;SDS011;6364;53.590;9.956;2022-12-11T10:19:37;21.52;;;10.23;;
12597;SDS011;6364;53.590;9.956;2022-12-11T10:22:04;17.02;;;9.40;;
12597;SDS011;6364;53.590;9.956;2022-12-11T10:24:43;17.98;;;9.52;;
12597;SDS011;6364;53.590;9.956;2022-12-11T10:27:13;21.40;;;10.63;;
12597;SDS011;6364;53.590;9.956;2022-12-11T10:29:44;20.23;;;10.05;;
12597;SDS011;6364;53.590;9.956;2022-12-11T10:32:27;16.95;;;9.45;;
12597;SDS011;6364;53.590;9.956;2022-12-11T10:35:03;18.85;;;9.68;;
12597;SDS011;6364;53.590;9.956;2022-12-11T10:37:29;17.45;;;9.63;;
12597;SDS011;6364;53.590;9.956;2022-12-11T10:39:55;18.77;;;10.02;;
12597;SDS011;6364;53.590;9.956;2022-12-11T10:42:20;21.38;;;10.50;;
12597;SDS011;6364;53.590;9.956;2022-12-11T10:44:59;21.58;;;10.27;;
12597;SDS011;6364;53.590;9.956;2022-12-11T10:47:26;16.73;;;9.68;;
12597;SDS011;6364;53.590;9.956;2022-12-11T10:49:55;17.50;;;10.05;;
12597;SDS011;6364;53.590;9.956;2022-12-11T10:52:23;18.52;;;9.93;;
12597;SDS011;6364;53.590;9.956;2022-12-11T10:55:05;18.85;;;10.25;;
12597;SDS011;6364;53.590;9.956;2022-12-11T10:57:33;17.63;;;9.82;;
12597;SDS011;6364;53.590;9.956;2022-12-11T10:59:59;19.55;;;10.55;;
12597;SDS011;6364;53.590;9.956;2022-12-11T11:02:29;20.05;;;10.38;;
12597;SDS011;6364;53.590;9.956;2022-12-11T11:04:56;19.67;;;10.57;;
12597;SDS011;6364;53.590;9.956;2022-12-11T11:09:49;15.80;;;9.38;;
12597;SDS011;6364;53.590;9.956;2022-12-11T11:12:22;18.90;;;10.27;;
12597;SDS011;6364;53.590;9.956;2022-12-11T11:15:04;19.40;;;10.68;;
12597;SDS011;6364;53.590;9.956;2022-12-11T11:17:44;16.27;;;9.38;;
12597;SDS011;6364;53.590;9.956;2022-12-11T11:20:13;19.10;;;9.73;;
12597;SDS011;6364;53.590;9.956;2022-12-11T11:22:46;19.17;;;10.13;;
12597;SDS011;6364;53.590;9.956;2022-12-11T11:25:15;18.15;;;10.10;;
12597;SDS011;6364;53.590;9.956;2022-12-11T11:27:47;19.35;;;10.27;;
12597;SDS011;6364;53.590;9.956;2022-12-11T11:30:17;21.20;;;11.15;;
12597;SDS011;6364;53.590;9.956;2022-12-11T11:32:44;17.83;;;9.73;;
12597;SDS011;6364;53.590;9.956;2022-12-11T11:37:43;18.17;;;10.50;;
12597;SDS011;6364;53.590;9.956;2022-12-11T11:45:37;17.10;;;9.45;;
12597;SDS011;6364;53.590;9.956;2022-12-11T11:48:23;20.25;;;10.10;;
12597;SDS011;6364;53.590;9.956;2022-12-11T11:50:53;19.48;;;10.55;;
12597;SDS011;6364;53.590;9.956;2022-12-11T11:53:26;16.98;;;10.68;;
12597;SDS011;6364;53.590;9.956;2022-12-11T11:58:40;19.15;;;11.57;;
12597;SDS011;6364;53.590;9.956;2022-12-11T12:01:16;19.23;;;10.00;;
12597;SDS011;6364;53.590;9.956;2022-12-11T12:03:43;23.60;;;10.35;;
12597;SDS011;6364;53.590;9.956;2022-12-11T12:14:24;19.08;;;10.52;;
12597;SDS011;6364;53.590;9.956;2022-12-11T12:16:59;20.52;;;10.40;;
12597;SDS011;6364;53.590;9.956;2022-12-11T12:30:21;16.90;;;10.18;;
12597;SDS011;6364;53.590;9.956;2022-12-11T12:35:37;17.05;;;10.38;;
12597;SDS011;6364;53.590;9.956;2022-12-11T12:46:33;18.55;;;10.30;;
12597;SDS011;6364;53.590;9.956;2022-12-11T12:49:08;16.35;;;10.35;;
12597;SDS011;6364;53.590;9.956;2022-12-11T12:51:37;17.30;;;10.40;;
12597;SDS011;6364;53.590;9.956;2022-12-11T12:54:03;19.60;;;10.65;;
12597;SDS011;6364;53.590;9.956;2022-12-11T12:56:31;19.23;;;10.77;;
12597;SDS011;6364;53.590;9.956;2022-12-11T12:58:57;19.90;;;9.93;;
12597;SDS011;6364;53.590;9.956;2022-12-11T13:01:26;21.13;;;11.13;;
12597;SDS011;6364;53.590;9.956;2022-12-11T13:03:57;19.85;;;10.63;;
12597;SDS011;6364;53.590;9.956;2022-12-11T13:06:36;20.35;;;10.68;;
12597;SDS011;6364;53.590;9.956;2022-12-11T13:11:49;18.02;;;10.05;;
12597;SDS011;6364;53.590;9.956;2022-12-11T13:16:45;19.98;;;10.25;;
12597;SDS011;6364;53.590;9.956;2022-12-11T13:24:48;20.08;;;10.30;;
12597;SDS011;6364;53.590;9.956;2022-12-11T13:30:07;22.02;;;10.85;;
12597;SDS011;6364;53.590;9.956;2022-12-11T13:33:06;19.20;;;10.10;;
12597;SDS011;6364;53.590;9.956;2022-12-11T13:35:38;23.58;;;10.52;;
12597;SDS011;6364;53.590;9.956;2022-12-11T13:38:14;20.67;;;10.73;;
12597;SDS011;6364;53.590;9.956;2022-12-11T13:40:41;19.88;;;10.05;;
12597;SDS011;6364;53.590;9.956;2022-12-11T13:43:14;18.63;;;10.20;;
12597;SDS011;6364;53.590;9.956;2022-12-11T13:45:45;19.63;;;10.07;;
12597;SDS011;6364;53.590;9.956;2022-12-11T13:48:22;22.15;;;10.88;;
12597;SDS011;6364;53.590;9.956;2022-12-11T13:50:51;22.08;;;10.18;;
12597;SDS011;6364;53.590;9.956;2022-12-11T13:53:18;19.02;;;10.23;;
12597;SDS011;6364;53.590;9.956;2022-12-11T13:55:44;22.08;;;11.38;;
12597;SDS011;6364;53.590;9.956;2022-12-11T13:58:17;20.55;;;10.45;;
12597;SDS011;6364;53.590;9.956;2022-12-11T14:00:50;17.30;;;8.55;;
12597;SDS011;6364;53.590;9.956;2022-12-11T14:03:17;19.10;;;10.48;;
12597;SDS011;6364;53.590;9.956;2022-12-11T14:05:42;20.90;;;10.73;;
12597;SDS011;6364;53.590;9.956;2022-12-11T14:08:08;21.85;;;11.57;;
12597;SDS011;6364;53.590;9.956;2022-12-11T14:10:34;22.50;;;11.43;;
12597;SDS011;6364;53.590;9.956;2022-12-11T14:13:01;23.48;;;11.15;;
12597;SDS011;6364;53.590;9.956;2022-12-11T14:15:31;19.58;;;10.35;;
12597;SDS011;6364;53.590;9.956;2022-12-11T14:17:57;21.27;;;11.02;;
12597;SDS011;6364;53.590;9.956;2022-12-11T14:20:25;18.20;;;10.40;;
12597;SDS011;6364;53.590;9.956;2022-12-11T14:23:02;26.63;;;14.52;;
12597;SDS011;6364;53.590;9.956;2022-12-11T14:25:32;34.55;;;13.10;;
12597;SDS011;6364;53.590;9.956;2022-12-11T14:27:57;26.88;;;13.57;;
12597;SDS011;6364;53.590;9.956;2022-12-11T14:30:23;24.67;;;13.23;;
12597;SDS011;6364;53.590;9.956;2022-12-11T14:32:51;26.98;;;12.38;;
12597;SDS011;6364;53.590;9.956;2022-12-11T14:35:30;22.23;;;11.35;;
12597;SDS011;6364;53.590;9.956;2022-12-11T14:37:57;24.83;;;11.70;;
12597;SDS011;6364;53.590;9.956;2022-12-11T14:40:27;25.48;;;12.18;;
12597;SDS011;6364;53.590;9.956;2022-12-11T14:42:57;28.88;;;13.05;;
12597;SDS011;6364;53.590;9.956;2022-12-11T14:45:28;24.23;;;12.27;;
12597;SDS011;6364;53.590;9.956;2022-12-11T14:47:59;21.85;;;11.40;;
12597;SDS011;6364;53.590;9.956;2022-12-11T14:52:58;24.73;;;12.27;;
12597;SDS011;6364;53.590;9.956;2022-12-11T14:55:27;24.23;;;12.73;;
12597;SDS011;6364;53.590;9.956;2022-12-11T14:57:59;28.25;;;12.73;;
12597;SDS011;6364;53.590;9.956;2022-12-11T15:00:39;27.88;;;13.60;;
12597;SDS011;6364;53.590;9.956;2022-12-11T15:03:05;22.42;;;11.65;;
12597;SDS011;6364;53.590;9.956;2022-12-11T15:05:31;26.95;;;12.82;;
12597;SDS011;6364;53.590;9.956;2022-12-11T15:10:24;22.60;;;11.73;;
12597;SDS011;6364;53.590;9.956;2022-12-11T15:12:50;22.80;;;11.73;;
12597;SDS011;6364;53.590;9.956;2022-12-11T15:15:16;23.17;;;11.75;;
12597;SDS011;6364;53.590;9.956;2022-12-11T15:17:42;24.77;;;12.63;;
12597;SDS011;6364;53.590;9.956;2022-12-11T15:20:08;32.33;;;15.10;;
12597;SDS011;6364;53.590;9.956;2022-12-11T15:22:40;25.30;;;12.68;;
12597;SDS011;6364;53.590;9.956;2022-12-11T15:25:15;23.17;;;12.18;;
12597;SDS011;6364;53.590;9.956;2022-12-11T15:27:42;23.85;;;13.05;;
12597;SDS011;6364;53.590;9.956;2022-12-11T15:30:19;26.75;;;13.00;;
12597;SDS011;6364;53.590;9.956;2022-12-11T15:35:35;29.30;;;12.43;;
12597;SDS011;6364;53.590;9.956;2022-12-11T15:38:02;27.95;;;12.82;;
12597;SDS011;6364;53.590;9.956;2022-12-11T15:40:28;25.15;;;13.10;;
12597;SDS011;6364;53.590;9.956;2022-12-11T15:42:53;25.00;;;13.23;;
12597;SDS011;6364;53.590;9.956;2022-12-11T15:45:25;25.58;;;12.50;;
12597;SDS011;6364;53.590;9.956;2022-12-11T15:47:54;23.45;;;12.15;;
12597;SDS011;6364;53.590;9.956;2022-12-11T15:50:21;23.38;;;12.05;;
12597;SDS011;6364;53.590;9.956;2022-12-11T15:52:47;26.83;;;12.98;;
12597;SDS011;6364;53.590;9.956;2022-12-11T15:55:14;24.48;;;12.48;;
12597;SDS011;6364;53.590;9.956;2022-12-11T15:57:44;26.27;;;12.13;;
12597;SDS011;6364;53.590;9.956;2022-12-11T16:00:14;27.50;;;13.15;;
12597;SDS011;6364;53.590;9.956;2022-12-11T16:02:40;28.05;;;12.10;;
12597;SDS011;6364;53.590;9.956;2022-12-11T16:05:06;24.70;;;12.38;;
12597;SDS011;6364;53.590;9.956;2022-12-11T16:07:32;24.80;;;11.45;;
12597;SDS011;6364;53.590;9.956;2022-12-11T16:09:57;26.30;;;12.95;;
12597;SDS011;6364;53.590;9.956;2022-12-11T16:12:23;24.10;;;11.82;;
12597;SDS011;6364;53.590;9.956;2022-12-11T16:14:48;26.67;;;13.20;;
12597;SDS011;6364;53.590;9.956;2022-12-11T16:17:14;39.92;;;20.17;;
12597;SDS011;6364;53.590;9.956;2022-12-11T16:19:41;36.65;;;16.15;;